St Mary's Airport
PASM : now visible

Airfield :











YOU CAN JOIN US ON...

 
LOGIN :

Register | Disclaimer

   EN    FR    IT 

 









Legend :    VFR   Marginal VFR   IFR   Intensive IFR   Very Intensive IFR
Visi :
Ceiling :
>= 8 km
>= 3000ft
5 to 8 km
1000 to 3000 ft
1500m to 5 km
500 to 1000 ft
800 to 1500m
200 to 500 ft
< 800m
< 200 ft
Symbols :   Thunderstorms  Fog  Heavy snow  Heavy precipitations  Wind > 20 kt






- Airport Elevation : 312 ft
- IATA code : KSM


PASM - St Mary's

CURRENT METAR :
  • 032046Z AUTO 15013G19KT 1SM -SN BR OVC002 00/00 A3000 RMK AO2 P0000 FZRANO

EXPIRED METARs :
  • 032036Z AUTO 16014G21KT 1 1/4SM -SN BR OVC002 00/00 A3001 RMK AO2 P0000 FZRANO
  • 032007Z AUTO 15010G16KT 2SM -SN BR OVC002 00/00 A3002 RMK AO2 P0000 FZRANO
  • 031956Z AUTO 15011G15KT 1 1/2SM -SN BR OVC002 00/M01 A3003 RMK AO2 SLP181 P0000 T00001006 FZRANO
  • 031949Z AUTO 15008G15KT 1 1/4SM -SN BR OVC002 M01/M01 A3003 RMK AO2 P0000 FZRANO
  • 031928Z AUTO 16009G15KT 3/4SM -SN BR OVC002 M01/M01 A3004 RMK AO2 P0000 FZRANO
  • 031923Z AUTO 16011G15KT 1 1/4SM -SN BR OVC002 M01/M01 A3004 RMK AO2 P0000 FZRANO
  • 031856Z AUTO 16008KT 3/4SM -SN BR OVC002 M01/M01 A3005 RMK AO2 UPB22E27SNB27 SLP187 P0000 T10061006 FZRANO
  • 031756Z AUTO 18010KT 1/4SM FZFG OVC002 M01/M01 A3007 RMK AO2 SLP191 60000 T10061006 10000 21006 58003 FZRANO

TAF N/A



MET'MAP, your aeronautical weather chart ! - Copyright ORBIFLY December 2007 - Disclaimer

ORBIFLY MET'MAP TEAM :

Programming & Development : Alexandra Zaïnal
Concept & original design : Baudouin d'Aumeries
Assistance for programming : Marc-Olivier Méhu
Technical & hardware support : Manuel Goepfert

Contact : metmap@orbifly.com




SOURCES & CREDITS :

   NOAA       Earth
Advisory